createdAt,value
2019-05-23T00:01:04.243Z,97601.75
2019-05-23T00:04:40.251Z,97601.75
2019-05-23T00:08:19.253Z,97606.40
2019-05-23T00:11:43.254Z,97610.15
2019-05-23T00:14:56.265Z,97614.98
2019-05-23T00:18:05.257Z,97608.30
2019-05-23T00:21:14.616Z,97612.20
2019-05-23T00:24:24.254Z,97610.02
2019-05-23T00:27:33.245Z,97602.03
2019-05-23T00:31:06.252Z,97609.33
2019-05-23T00:34:15.918Z,97604.72
2019-05-23T00:37:25.244Z,97602.89
2019-05-23T00:40:34.266Z,97596.62
2019-05-23T00:43:42.605Z,97598.53
2019-05-23T00:46:51.253Z,97600.16
2019-05-23T00:49:59.692Z,97600.16
2019-05-23T00:53:08.451Z,97592.22
2019-05-23T00:56:16.042Z,97594.59
2019-05-23T00:59:27.490Z,97596.36
2019-05-23T01:02:35.481Z,97601.80
2019-05-23T01:05:43.488Z,97605.55
2019-05-23T01:08:52.240Z,97597.25
2019-05-23T01:12:00.413Z,97584.14
2019-05-23T01:15:07.528Z,97597.60
2019-05-23T01:18:17.687Z,97640.02
2019-05-23T01:21:53.525Z,97598.63
2019-05-23T01:25:03.602Z,97581.36
2019-05-23T01:28:11.731Z,97603.50
2019-05-23T01:31:22.629Z,97603.50
2019-05-23T01:34:31.241Z,97587.30
2019-05-23T01:37:39.689Z,97587.30
2019-05-23T01:40:48.584Z,97606.08
2019-05-23T01:43:56.507Z,97607.84
2019-05-23T01:47:06.254Z,97605.92
2019-05-23T01:50:16.246Z,97605.92
2019-05-23T01:53:25.069Z,97610.36
2019-05-23T01:56:33.004Z,97616.39
2019-05-23T01:59:42.071Z,97592.49
2019-05-23T02:02:51.255Z,97610.23
2019-05-23T02:05:59.725Z,97609.43
2019-05-23T02:09:09.604Z,97609.43
2019-05-23T02:12:18.257Z,97610.33
2019-05-23T02:15:27.532Z,97610.33
2019-05-23T02:18:35.576Z,97611.55
2019-05-23T02:21:45.071Z,97602.57
2019-05-23T02:24:53.573Z,97602.57
2019-05-23T02:28:02.559Z,97613.52
2019-05-23T02:31:11.568Z,97607.63
2019-05-23T02:34:19.752Z,97580.23
2019-05-23T02:37:45.543Z,97580.23
2019-05-23T02:40:58.242Z,97579.80
2019-05-23T02:44:13.079Z,97579.80
2019-05-23T02:47:30.541Z,97599.48
2019-05-23T02:50:50.256Z,97595.31
2019-05-23T02:53:58.755Z,97595.31
2019-05-23T02:57:08.226Z,97590.08
2019-05-23T03:00:56.518Z,97590.08
2019-05-23T03:04:08.247Z,97591.27
2019-05-23T03:07:18.754Z,97591.27
2019-05-23T03:10:28.586Z,97590.33
2019-05-23T03:13:38.281Z,97593.11
2019-05-23T03:16:46.518Z,97592.34
2019-05-23T03:19:58.244Z,97575.84
2019-05-23T03:23:13.236Z,97575.84
2019-05-23T03:27:17.249Z,97587.81
2019-05-23T03:30:29.525Z,97589.22
2019-05-23T03:33:38.658Z,97568.95
2019-05-23T03:36:46.621Z,97568.95
2019-05-23T03:39:55.563Z,97567.09
2019-05-23T03:43:04.026Z,97577.59
2019-05-23T03:46:14.248Z,97577.59
2019-05-23T03:49:22.537Z,97574.78
2019-05-23T03:52:32.258Z,97566.17
2019-05-23T03:55:42.259Z,97566.17
2019-05-23T03:58:51.224Z,97577.94
2019-05-23T04:02:01.772Z,97576.03
2019-05-23T04:05:11.694Z,97576.03
2019-05-23T04:08:21.173Z,97575.50
2019-05-23T04:11:29.742Z,97576.14
2019-05-23T04:14:37.713Z,97574.35
2019-05-23T04:17:46.240Z,97572.88
2019-05-23T04:20:55.915Z,97571.83
2019-05-23T04:24:05.248Z,97570.08
2019-05-23T04:27:14.260Z,97571.68
2019-05-23T04:30:23.522Z,97566.42
2019-05-23T04:33:32.022Z,97555.75
2019-05-23T04:36:39.869Z,97555.75
2019-05-23T04:39:48.037Z,97573.44
2019-05-23T04:42:56.012Z,97570.70
2019-05-23T04:46:04.583Z,97567.89
2019-05-23T04:49:16.015Z,97568.11
2019-05-23T04:52:24.275Z,97563.23
2019-05-23T04:55:32.907Z,97570.55
2019-05-23T04:58:41.594Z,97563.16
2019-05-23T05:01:51.260Z,97553.32
2019-05-23T05:05:00.485Z,97553.32
2019-05-23T05:08:08.612Z,97570.39
2019-05-23T05:11:16.538Z,97564.36
2019-05-23T05:14:24.932Z,97549.45
2019-05-23T05:17:33.611Z,97549.45
2019-05-23T05:20:42.237Z,97570.79
2019-05-23T05:23:50.348Z,97570.79
2019-05-23T05:26:57.369Z,97571.08
2019-05-23T05:30:05.730Z,97575.98
2019-05-23T05:33:13.595Z,97574.41
2019-05-23T05:36:22.233Z,97578.05
2019-05-23T05:39:30.736Z,97578.05
2019-05-23T05:42:39.697Z,97569.04
2019-05-23T05:45:48.080Z,97578.72
2019-05-23T05:48:57.228Z,97570.77
2019-05-23T05:52:07.626Z,97575.69
2019-05-23T05:55:15.707Z,97581.12
2019-05-23T05:58:24.509Z,97573.38
2019-05-23T06:01:34.372Z,97578.49
2019-05-23T06:04:40.630Z,97575.32
2019-05-23T06:07:47.361Z,97578.33
2019-05-23T06:10:54.772Z,97576.25
2019-05-23T06:14:01.485Z,97580.86
2019-05-23T06:17:10.418Z,97580.22
2019-05-23T06:20:17.469Z,97580.28
2019-05-23T06:23:24.257Z,97585.44
2019-05-23T06:26:31.351Z,97574.67
2019-05-23T06:29:38.637Z,97571.95
2019-05-23T06:32:46.365Z,97573.70
2019-05-23T06:35:55.045Z,97571.17
2019-05-23T06:39:02.826Z,97572.06
2019-05-23T06:42:10.592Z,97573.25
2019-05-23T06:45:18.447Z,97569.10
2019-05-23T06:48:25.401Z,97566.93
2019-05-23T06:51:33.027Z,97569.14
2019-05-23T06:54:40.953Z,97558.20
2019-05-23T06:57:47.857Z,97558.20
2019-05-23T07:00:54.643Z,97569.09
2019-05-23T07:04:01.548Z,97563.13
2019-05-23T07:07:09.417Z,97572.72
2019-05-23T07:10:17.026Z,97585.19
2019-05-23T07:13:24.664Z,97581.93
2019-05-23T07:16:31.417Z,97584.51
2019-05-23T07:19:39.562Z,97581.47
2019-05-23T07:22:46.588Z,97580.59
2019-05-23T07:25:53.954Z,97577.50
2019-05-23T07:29:01.127Z,97573.81
2019-05-23T07:32:08.485Z,97586.83
2019-05-23T07:35:15.318Z,97575.60
2019-05-23T07:38:22.273Z,97580.02
2019-05-23T07:41:29.242Z,97579.92
2019-05-23T07:44:47.984Z,97584.60
2019-05-23T07:47:45.500Z,97588.72
2019-05-23T07:50:52.476Z,97576.50
2019-05-23T07:54:22.991Z,97576.50
2019-05-23T07:57:29.755Z,97583.81
2019-05-23T08:00:43.072Z,97570.64
2019-05-23T08:03:51.524Z,97570.64
2019-05-23T08:06:58.780Z,97592.50
2019-05-23T08:10:07.096Z,97588.50
2019-05-23T08:13:14.241Z,97588.50
2019-05-23T08:16:21.245Z,97588.64
2019-05-23T08:19:28.249Z,97585.60
2019-05-23T08:22:35.100Z,97586.65
2019-05-23T08:25:42.453Z,97590.42
2019-05-23T08:29:12.869Z,97589.95
2019-05-23T08:31:58.918Z,97589.94
2019-05-23T08:35:06.495Z,97580.16
2019-05-23T08:38:13.686Z,97602.38
2019-05-23T08:41:21.010Z,97584.98
2019-05-23T08:44:27.819Z,97583.58
2019-05-23T08:47:37.033Z,97583.45
2019-05-23T08:50:46.072Z,97587.30
2019-05-23T08:53:53.481Z,97589.70
2019-05-23T08:57:00.984Z,97586.14
2019-05-23T09:00:10.989Z,97583.73
2019-05-23T09:03:18.385Z,97581.45
2019-05-23T09:06:25.415Z,97578.67
2019-05-23T09:09:33.142Z,97572.50
2019-05-23T09:12:41.786Z,97572.33
2019-05-23T09:15:52.736Z,97574.50
2019-05-23T09:18:57.527Z,97568.48
2019-05-23T09:22:06.280Z,97570.47
2019-05-23T09:25:14.034Z,97576.64
2019-05-23T09:28:21.251Z,97570.77
2019-05-23T09:31:29.560Z,97566.39
2019-05-23T09:34:37.334Z,97571.05
2019-05-23T09:37:44.381Z,97570.03
2019-05-23T09:40:51.482Z,97581.59
2019-05-23T09:43:58.412Z,97568.80
2019-05-23T09:47:05.482Z,97565.17
2019-05-23T09:50:14.279Z,97567.22
2019-05-23T09:53:21.602Z,97567.91
2019-05-23T09:56:29.100Z,97570.34
2019-05-23T09:59:35.984Z,97570.34
2019-05-23T10:02:42.667Z,97562.98
2019-05-23T10:05:49.433Z,97553.47
2019-05-23T10:08:57.544Z,97536.03
2019-05-23T10:12:04.358Z,97536.03
2019-05-23T10:15:15.973Z,97564.54
2019-05-23T10:21:47.075Z,97572.39
2019-05-23T10:24:54.266Z,97564.83
2019-05-23T10:28:01.415Z,97571.48
2019-05-23T10:31:10.251Z,97562.50
2019-05-23T10:34:17.625Z,97561.70
2019-05-23T10:37:25.380Z,97538.20
2019-05-23T10:40:32.485Z,97538.20
2019-05-23T10:43:40.567Z,97531.95
2019-05-23T10:46:47.451Z,97548.31
2019-05-23T10:49:54.399Z,97541.47
2019-05-23T10:53:01.286Z,97540.81
2019-05-23T10:56:09.674Z,97542.72
2019-05-23T10:59:16.464Z,97532.41
2019-05-23T11:02:26.888Z,97540.93
2019-05-23T11:05:32.525Z,97539.87
2019-05-23T11:08:39.689Z,97525.01
2019-05-23T11:11:46.707Z,97509.03
2019-05-23T11:14:54.386Z,97525.88
2019-05-23T11:18:01.600Z,97525.88
2019-05-23T11:21:08.415Z,97515.55
2019-05-23T11:24:16.225Z,97511.46
2019-05-23T11:27:23.645Z,97519.13
2019-05-23T11:30:45.873Z,97509.32
2019-05-23T11:33:52.834Z,97509.32
2019-05-23T11:36:59.833Z,97514.06
2019-05-23T11:40:06.570Z,97505.33
2019-05-23T11:43:13.472Z,97496.77
2019-05-23T11:46:24.314Z,97495.89
2019-05-23T11:49:31.287Z,97498.48
2019-05-23T11:52:38.648Z,97493.73
2019-05-23T11:55:45.568Z,97495.43
2019-05-23T11:58:54.570Z,97487.25
2019-05-23T12:02:11.382Z,97473.48
2019-05-23T12:05:22.999Z,97482.05
2019-05-23T12:08:30.667Z,97476.84
2019-05-23T12:11:42.507Z,97482.96
2019-05-23T12:14:47.272Z,97474.62
2019-05-23T12:17:54.471Z,97474.79
2019-05-23T12:21:01.437Z,97460.80
2019-05-23T12:24:08.433Z,97470.91
2019-05-23T12:27:15.645Z,97467.58
2019-05-23T12:30:22.689Z,97460.70
2019-05-23T12:33:29.833Z,97456.44
2019-05-23T12:36:37.423Z,97455.66
2019-05-23T12:39:44.309Z,97446.35
2019-05-23T12:42:51.247Z,97454.19
2019-05-23T12:45:58.024Z,97440.39
2019-05-23T12:49:28.449Z,97445.84
2019-05-23T12:52:36.447Z,97439.39
2019-05-23T12:55:43.376Z,97441.06
2019-05-23T12:58:50.558Z,97445.95
2019-05-23T13:01:58.816Z,97441.17
2019-05-23T13:05:07.708Z,97437.66
2019-05-23T13:08:14.991Z,97437.70
2019-05-23T13:11:21.833Z,97437.70
2019-05-23T13:14:29.089Z,97425.95
2019-05-23T13:17:36.222Z,97430.61
2019-05-23T13:20:44.174Z,97428.95
2019-05-23T13:23:51.674Z,97420.19
2019-05-23T13:27:00.847Z,97400.02
2019-05-23T13:30:07.816Z,97400.02
2019-05-23T13:33:16.245Z,97422.61
2019-05-23T13:36:23.618Z,97405.23
2019-05-23T13:39:30.522Z,97407.16
2019-05-23T13:42:37.870Z,97403.53
2019-05-23T13:45:45.082Z,97404.31
2019-05-23T13:48:51.982Z,97403.36
2019-05-23T13:52:00.254Z,97396.06
2019-05-23T13:55:07.585Z,97403.13
2019-05-23T13:58:15.278Z,97394.06
2019-05-23T14:01:23.793Z,97401.30
2019-05-23T14:04:31.463Z,97400.23
2019-05-23T14:07:38.678Z,97398.01
2019-05-23T14:10:45.523Z,97394.75
2019-05-23T14:13:59.545Z,97394.75
2019-05-23T14:17:25.263Z,97401.30
2019-05-23T14:20:32.731Z,97391.13
2019-05-23T14:23:39.476Z,97398.09
2019-05-23T14:26:55.011Z,97402.84
2019-05-23T14:30:12.072Z,97402.84
2019-05-23T14:33:32.338Z,97400.34
2019-05-23T14:36:47.542Z,97385.03
2019-05-23T14:40:04.840Z,97390.23
2019-05-23T14:43:19.543Z,97379.26
2019-05-23T14:46:29.675Z,97390.84
2019-05-23T14:49:43.342Z,97379.92
2019-05-23T14:52:50.511Z,97379.92
2019-05-23T14:55:57.477Z,97375.28
2019-05-23T14:59:04.484Z,97378.45
2019-05-23T15:02:16.605Z,97375.12
2019-05-23T15:05:23.429Z,97367.73
2019-05-23T15:08:47.532Z,97371.37
2019-05-23T15:11:39.635Z,97368.33
2019-05-23T15:14:49.286Z,97375.67
2019-05-23T15:17:56.863Z,97370.97
2019-05-23T15:21:03.968Z,97365.08
2019-05-23T15:24:12.703Z,97369.64
2019-05-23T15:27:21.436Z,97356.05
2019-05-23T15:30:28.523Z,97356.05
2019-05-23T15:33:36.268Z,97369.16
2019-05-23T15:36:43.251Z,97366.51
2019-05-23T15:39:50.279Z,97365.80
2019-05-23T15:42:57.349Z,97351.83
2019-05-23T15:46:04.483Z,97345.52
2019-05-23T15:49:12.361Z,97348.10
2019-05-23T15:52:29.572Z,97351.97
2019-05-23T15:56:16.819Z,97344.41
2019-05-23T15:59:20.261Z,97353.42
2019-05-23T16:02:46.227Z,97354.89
2019-05-23T16:05:54.549Z,97351.37
2019-05-23T16:09:02.147Z,97343.66
2019-05-23T16:12:09.614Z,97341.73
2019-05-23T16:15:16.659Z,97346.65
2019-05-23T16:18:23.816Z,97352.69
2019-05-23T16:21:31.329Z,97352.69
2019-05-23T16:24:40.312Z,97343.03
2019-05-23T16:27:47.517Z,97346.73
2019-05-23T16:30:54.533Z,97341.78
2019-05-23T16:34:01.486Z,97341.11
2019-05-23T16:37:08.396Z,97343.70
2019-05-23T16:40:16.424Z,97343.20
2019-05-23T16:43:25.302Z,97341.25
2019-05-23T16:46:34.464Z,97337.96
2019-05-23T16:49:41.439Z,97341.97
2019-05-23T16:52:48.830Z,97334.59
2019-05-23T16:57:00.275Z,97328.34
2019-05-23T17:00:26.070Z,97325.78
2019-05-23T17:03:52.287Z,97324.04
2019-05-23T17:07:25.271Z,97321.30
2019-05-23T17:10:57.389Z,97325.53
2019-05-23T17:14:22.239Z,97332.99
2019-05-23T17:18:00.740Z,97330.82
2019-05-23T17:20:58.463Z,97329.59
2019-05-23T17:24:24.697Z,97330.11
2019-05-23T17:27:50.459Z,97335.25
2019-05-23T17:31:06.515Z,97333.69
2019-05-23T17:34:13.558Z,97331.56
2019-05-23T17:37:23.896Z,97337.61
2019-05-23T17:40:31.585Z,97339.91
2019-05-23T17:43:38.613Z,97332.06
2019-05-23T17:46:46.003Z,97328.19
2019-05-23T17:49:53.712Z,97327.70
2019-05-23T17:53:00.541Z,97304.03
2019-05-23T17:56:07.726Z,97304.03
2019-05-23T17:59:14.766Z,97328.83
2019-05-23T18:02:22.071Z,97304.41
2019-05-23T18:05:31.596Z,97304.41
2019-05-23T18:08:40.266Z,97319.70
2019-05-23T18:11:47.975Z,97324.33
2019-05-23T18:14:55.082Z,97331.05
2019-05-23T18:18:02.373Z,97337.97
2019-05-23T18:21:12.353Z,97339.38
2019-05-23T18:24:19.998Z,97344.28
2019-05-23T18:27:27.007Z,97344.28
2019-05-23T18:30:42.270Z,97353.26
2019-05-23T18:33:50.395Z,97345.30
2019-05-23T18:36:57.348Z,97341.68
2019-05-23T18:40:05.442Z,97338.66
2019-05-23T18:43:14.334Z,97337.74
2019-05-23T18:46:28.005Z,97347.64
2019-05-23T18:49:40.607Z,97345.05
2019-05-23T18:52:51.877Z,97353.92
2019-05-23T18:55:59.861Z,97351.63
2019-05-23T18:59:09.270Z,97357.83
2019-05-23T19:02:17.261Z,97359.47
2019-05-23T19:05:27.491Z,97356.39
2019-05-23T19:08:34.252Z,97364.89
2019-05-23T19:11:42.106Z,97361.52
2019-05-23T19:14:52.036Z,97364.25
2019-05-23T19:18:00.265Z,97367.60
2019-05-23T19:21:08.440Z,97362.88
2019-05-23T19:24:17.261Z,97343.27
2019-05-23T19:27:25.680Z,97343.27
2019-05-23T19:30:33.467Z,97371.44
2019-05-23T19:33:45.647Z,97369.30
2019-05-23T19:36:52.853Z,97369.05
2019-05-23T19:40:00.079Z,97370.14
2019-05-23T19:43:07.240Z,97369.47
2019-05-23T19:46:16.271Z,97363.58
2019-05-23T19:49:27.241Z,97366.17
2019-05-23T19:52:32.853Z,97348.23
2019-05-23T19:55:40.857Z,97348.23
2019-05-23T19:58:48.869Z,97366.13
2019-05-23T20:02:14.260Z,97370.31
2019-05-23T20:05:32.029Z,97368.58
2019-05-23T20:08:40.674Z,97368.67
2019-05-23T20:11:54.615Z,97352.34
2019-05-23T20:14:56.099Z,97352.34
2019-05-23T20:18:03.810Z,97366.45
2019-05-23T20:21:10.496Z,97371.13
2019-05-23T20:24:18.271Z,97371.13
2019-05-23T20:27:25.637Z,97371.27
2019-05-23T20:31:05.244Z,97374.95
2019-05-23T20:34:12.560Z,97371.55
2019-05-23T20:37:20.556Z,97376.06
2019-05-23T20:40:27.915Z,97377.87
2019-05-23T20:43:35.749Z,97376.05
2019-05-23T20:46:44.246Z,97372.59
2019-05-23T20:49:52.623Z,97372.59
2019-05-23T20:52:59.833Z,97373.52
2019-05-23T20:56:07.037Z,97369.67
2019-05-23T20:59:13.878Z,97368.78
2019-05-23T21:02:20.604Z,97364.33
2019-05-23T21:05:27.785Z,97363.09
2019-05-23T21:08:34.466Z,97356.98
2019-05-23T21:11:41.481Z,97356.98
2019-05-23T21:14:48.459Z,97354.34
2019-05-23T21:17:55.306Z,97351.94
2019-05-23T21:21:02.264Z,97355.63
2019-05-23T21:24:09.327Z,97353.50
2019-05-23T21:27:17.301Z,97356.03
2019-05-23T21:30:24.266Z,97362.21
2019-05-23T21:33:32.035Z,97359.13
2019-05-23T21:36:41.032Z,97355.17
2019-05-23T21:39:47.974Z,97357.24
2019-05-23T21:42:54.844Z,97362.33
2019-05-23T21:46:04.347Z,97371.66
2019-05-23T21:49:11.382Z,97369.39
2019-05-23T21:52:18.361Z,97360.17
2019-05-23T21:55:37.027Z,97360.81
2019-05-23T21:58:43.856Z,97360.94
2019-05-23T22:02:00.242Z,97357.17
2019-05-23T22:05:12.267Z,97354.06
2019-05-23T22:08:19.265Z,97349.44
2019-05-23T22:11:26.302Z,97354.06
2019-05-23T22:14:33.921Z,97352.02
2019-05-23T22:17:40.490Z,97344.44
2019-05-23T22:20:47.328Z,97342.64
2019-05-23T22:23:54.311Z,97348.95
2019-05-23T22:27:02.089Z,97351.30
2019-05-23T22:30:08.934Z,97350.78
2019-05-23T22:33:17.321Z,97341.55
2019-05-23T22:36:24.453Z,97335.34
2019-05-23T22:39:31.508Z,97338.20
2019-05-23T22:42:39.461Z,97333.13
2019-05-23T22:45:46.720Z,97331.04
2019-05-23T22:48:53.543Z,97319.84
2019-05-23T22:52:00.354Z,97319.84
2019-05-23T22:55:07.323Z,97335.41
2019-05-23T22:58:14.362Z,97335.64
2019-05-23T23:01:22.842Z,97333.77
2019-05-23T23:04:29.835Z,97333.98
2019-05-23T23:07:37.100Z,97328.86
2019-05-23T23:10:44.119Z,97333.34
2019-05-23T23:13:50.960Z,97336.97
2019-05-23T23:16:57.573Z,97340.97
2019-05-23T23:20:05.018Z,97337.22
2019-05-23T23:23:11.811Z,97333.23
2019-05-23T23:26:18.676Z,97334.84
2019-05-23T23:29:27.364Z,97342.18
2019-05-23T23:32:34.283Z,97338.83
2019-05-23T23:35:42.252Z,97331.38
2019-05-23T23:38:49.251Z,97325.41
2019-05-23T23:41:56.252Z,97329.25
2019-05-23T23:45:20.840Z,97323.05
2019-05-23T23:48:45.670Z,97324.27
2019-05-23T23:52:10.263Z,97322.89
2019-05-23T23:55:34.922Z,97324.66
2019-05-23T23:58:40.446Z,97324.47
